Terminal Aerodrome Forecast
Issued by NWS Twin Cities, MN

Home | Current Version | Previous Version | Graphics & Text | Print | Product List | Glossary On
Versions: 1 2 3 4 5 6 7 8 9 10 11 12
000
FTUS43 KMPX 171120
TAFEAU
TAF
KEAU 171120Z 1712/1812 12005KT P6SM SKC
     FM171800 18005KT P6SM FEW200
     FM180200 24004KT P6SM SCT200
     FM180500 26004KT P6SM FEW045=

USA.gov is the U.S. government's official web portal to all federal, state and local government web resources and services.